»·PEaware :: N30F KPRC-KSBA

N30F :: KPRC-KSBA

FLIGHT INFORMATION

Flight Status: Arrived
Operator: Privately registered:
United States
More flights under this callsign
Pilot: David Z. (5144)
Aircraft: CANADAIR CL-600 CHALLENGER
(CL60)
More flights by this aircraft type
Origin: KPRC Love
United States
Destination: KSBA Santa Barbara Mun
United States
More flights between these airports :: More routes between these airports
Route: PRC3 DRK J6 HEC PITBL1
File this flight plan on PilotEdge
Remarks: RMK / SIMBRIEF
Altitude:
(Current/Filed)
40,000ft
Speed:
(Current/Filed)
461kts
Departed: 30-Aug-23 01:34 PM
Arrived: 30-Aug-23 02:43 PM
Distance/Time
Traveled:
367nm/1:09
Distance/Time
To Go:
Arrived

Flight Plot

Page will automatically refresh every two minutes.

Flight plan parsing failed; only flown route is shown


Map Options




Map Legend


Flown Route
Filed Route
Departure Airport
Arrival Airport
Navaid (VOR, NDB)
Fix

Horizontal Profiles

Position Reports

Time Latitude Longitude Heading Altitude Ground
Speed
30-Aug-23 13:03 34.646488 -112.425143 42 5028ft 0kts
30-Aug-23 13:04 34.646488 -112.425143 42 5028ft 0kts
30-Aug-23 13:05 34.646488 -112.425143 42 5028ft 0kts
30-Aug-23 13:06 34.646488 -112.425143 42 5028ft 0kts
30-Aug-23 13:07 34.646488 -112.425143 42 5028ft 0kts
30-Aug-23 13:08 34.646488 -112.425143 42 5028ft 0kts
30-Aug-23 13:09 34.646488 -112.425143 42 5028ft 0kts
30-Aug-23 13:10 34.646488 -112.425143 42 5028ft 0kts
30-Aug-23 13:11 34.646488 -112.425143 42 5028ft 0kts
30-Aug-23 13:12 34.646488 -112.425143 42 5028ft 0kts
30-Aug-23 13:13 34.646488 -112.425143 42 5028ft 0kts
30-Aug-23 13:14 34.646488 -112.425143 42 5028ft 0kts
30-Aug-23 13:15 34.646488 -112.425143 42 5028ft 0kts
30-Aug-23 13:16 34.646488 -112.425143 42 5028ft 0kts
30-Aug-23 13:18 34.646488 -112.425143 42 5028ft 0kts
30-Aug-23 13:19 34.646488 -112.425143 42 5028ft 0kts
30-Aug-23 13:20 34.646488 -112.425143 42 5028ft 0kts
30-Aug-23 13:21 34.646488 -112.425143 42 5028ft 0kts
30-Aug-23 13:22 34.646488 -112.425143 42 5028ft 0kts
30-Aug-23 13:23 34.646488 -112.425143 42 5028ft 0kts
30-Aug-23 13:24 34.646488 -112.425143 42 5028ft 0kts
30-Aug-23 13:25 34.646488 -112.425143 42 5028ft 0kts
30-Aug-23 13:26 34.646488 -112.425143 42 5028ft 0kts
30-Aug-23 13:27 34.646488 -112.425143 42 5028ft 0kts
30-Aug-23 13:28 34.646488 -112.425143 42 5028ft 0kts
30-Aug-23 13:29 34.647158 -112.425100 334 5025ft 10kts
30-Aug-23 13:30 34.650123 -112.422357 41 5014ft 14kts
30-Aug-23 13:31 34.654966 -112.417226 41 4986ft 29kts
30-Aug-23 13:32 34.659188 -112.412071 41 4962ft 17kts
30-Aug-23 13:33 34.661700 -112.410745 307 4954ft 11kts
30-Aug-23 13:34 34.654572 -112.419396 221 4992ft 140kts
30-Aug-23 13:35 34.608906 -112.459748 215 6691ft 268kts
30-Aug-23 13:36 34.576705 -112.533829 296 11226ft 296kts
30-Aug-23 13:37 34.656666 -112.552312 33 15017ft 354kts
30-Aug-23 13:38 34.754494 -112.503334 23 18010ft 396kts
30-Aug-23 13:39 34.862176 -112.493999 346 21075ft 412kts
30-Aug-23 13:40 34.949741 -112.437134 73 25320ft 386kts
30-Aug-23 13:41 34.908256 -112.324509 156 27016ft 410kts
30-Aug-23 13:42 34.802243 -112.355650 227 28124ft 436kts
30-Aug-23 13:42 34.730866 -112.446680 234 29577ft 448kts
30-Aug-23 13:43 34.706928 -112.592349 273 31231ft 451kts
30-Aug-23 13:45 34.713524 -112.764594 272 33816ft 436kts
30-Aug-23 13:46 34.718928 -112.911229 271 35503ft 432kts
30-Aug-23 13:47 34.724124 -113.057089 271 36908ft 429kts
30-Aug-23 13:47 34.728340 -113.178665 271 37877ft 428kts
30-Aug-23 13:48 34.733215 -113.323591 271 38844ft 427kts
30-Aug-23 13:49 34.737912 -113.468150 271 39653ft 426kts
30-Aug-23 13:51 34.743163 -113.636516 271 40354ft 426kts
30-Aug-23 13:51 34.746756 -113.756426 270 40355ft 435kts
30-Aug-23 13:52 34.751053 -113.904757 270 40340ft 438kts
30-Aug-23 13:53 34.755168 -114.053415 270 40259ft 437kts
30-Aug-23 13:54 34.759073 -114.200835 270 40226ft 436kts
30-Aug-23 13:55 34.762811 -114.348849 270 40201ft 436kts
30-Aug-23 13:56 34.766361 -114.496304 270 40178ft 436kts
30-Aug-23 13:57 34.769769 -114.644454 270 40153ft 437kts
30-Aug-23 13:58 34.772945 -114.789890 270 40187ft 437kts
30-Aug-23 13:59 34.775997 -114.938413 270 40187ft 437kts
30-Aug-23 14:00 34.778852 -115.085909 270 40173ft 435kts
30-Aug-23 14:01 34.781529 -115.233393 270 40149ft 436kts
30-Aug-23 14:02 34.784039 -115.381135 270 40197ft 436kts
30-Aug-23 14:03 34.786373 -115.529332 270 40276ft 437kts
30-Aug-23 14:04 34.788530 -115.677575 269 40287ft 437kts
30-Aug-23 14:05 34.790452 -115.821118 269 40251ft 436kts
30-Aug-23 14:06 34.792250 -115.968705 269 40234ft 436kts
30-Aug-23 14:07 34.793869 -116.116280 269 40230ft 437kts
30-Aug-23 14:08 34.795317 -116.264313 269 40208ft 437kts
30-Aug-23 14:09 34.796583 -116.412119 269 40205ft 437kts
30-Aug-23 14:10 34.783080 -116.558531 259 40197ft 435kts
30-Aug-23 14:11 34.761337 -116.704884 259 40206ft 436kts
30-Aug-23 14:12 34.739850 -116.848549 259 40208ft 436kts
30-Aug-23 14:13 34.717958 -116.993795 259 40206ft 436kts
30-Aug-23 14:14 34.695909 -117.138932 259 40206ft 435kts
30-Aug-23 14:15 34.673653 -117.284254 259 40207ft 436kts
30-Aug-23 14:16 34.651133 -117.430112 259 40211ft 437kts
30-Aug-23 14:17 34.628495 -117.575579 259 40213ft 436kts
30-Aug-23 14:18 34.605444 -117.722467 258 40219ft 435kts
30-Aug-23 14:19 34.582592 -117.866922 258 39508ft 441kts
30-Aug-23 14:20 34.559606 -118.010936 259 37466ft 435kts
30-Aug-23 14:21 34.536421 -118.155231 260 35300ft 436kts
30-Aug-23 14:22 34.512757 -118.301421 260 33028ft 445kts
30-Aug-23 14:23 34.488420 -118.450792 261 30582ft 457kts
30-Aug-23 14:24 34.463291 -118.604106 259 28065ft 465kts
30-Aug-23 14:25 34.438690 -118.752921 258 25581ft 430kts
30-Aug-23 14:26 34.415317 -118.890606 258 23612ft 410kts
30-Aug-23 14:27 34.392060 -119.024220 257 20474ft 399kts
30-Aug-23 14:28 34.370291 -119.153469 257 17652ft 384kts
30-Aug-23 14:29 34.349851 -119.275089 257 16471ft 324kts
30-Aug-23 14:30 34.330707 -119.387805 256 14953ft 351kts
30-Aug-23 14:31 34.311359 -119.502273 259 13227ft 340kts
30-Aug-23 14:32 34.278594 -119.602751 232 11398ft 318kts
30-Aug-23 14:33 34.229101 -119.683151 231 10193ft 285kts
30-Aug-23 14:34 34.182626 -119.758615 231 8376ft 280kts
30-Aug-23 14:35 34.162318 -119.841328 303 6672ft 279kts
30-Aug-23 14:36 34.234517 -119.846075 21 5299ft 285kts
30-Aug-23 14:37 34.304577 -119.807115 49 4150ft 273kts
30-Aug-23 14:38 34.348894 -119.740406 52 3437ft 231kts
30-Aug-23 14:39 34.400361 -119.720546 324 2798ft 192kts
30-Aug-23 14:40 34.426746 -119.770831 284 1361ft 157kts
30-Aug-23 14:41 34.428221 -119.817806 266 361ft 130kts
30-Aug-23 14:42 34.427584 -119.850295 266 21ft 25kts
30-Aug-23 14:43 34.426506 -119.847915 88 21ft 21kts
30-Aug-23 14:44 34.426172 -119.841235 167 21ft 10kts
30-Aug-23 14:45 34.423027 -119.839051 120 21ft 13kts
30-Aug-23 14:46 34.422264 -119.836598 166 21ft 6kts
30-Aug-23 14:47 34.421971 -119.836163 347 21ft 0kts
30-Aug-23 14:48 34.421971 -119.836163 347 21ft 0kts
30-Aug-23 14:49 34.421971 -119.836163 347 21ft 0kts
30-Aug-23 14:50 34.421971 -119.836163 347 21ft 0kts
30-Aug-23 14:51 34.421971 -119.836163 347 21ft 0kts
30-Aug-23 14:52 34.421971 -119.836163 347 21ft 0kts
30-Aug-23 14:53 34.421971 -119.836163 347 21ft 0kts
30-Aug-23 14:54 34.421971 -119.836163 347 21ft 0kts
30-Aug-23 14:55 34.421971 -119.836163 347 21ft 0kts
30-Aug-23 14:56 34.421971 -119.836163 347 21ft 0kts

Navigation Log

Ident Type
Flight plan parsing failed, navigation log unavailable